Alexandria, Ohio
Current Conditions -  °F | °C
As of 2:54 PM on Friday 31 Oct 2014 (Local Time) from KVTA Reporting Station
Overcast Overcast  
Wind Chill: 44°   Ceiling: 4300
Heat Index: 47°   Visibility: 10mi
Dew Point: 39°   Wind: 7mph
Humidity: 74%   Direction: 200°SSW
Pressure: 29.84"   Gusts: NA
Location:  40.09°N, 82.61°W
Report Text: KVTA 311854Z AUTO 20006KT 10SM FEW020 OVC043 08/04 A2984 RMK AO2 RAB13E41 SLP109 P0000 T00830039
Loading
Personal Weather Stations






























Interactive Weather Map
Tropical Storm Tracking
New forecast layout! Learn more

10-Day Weather Forecast

Advertisements
Track Severe Weather on mobile